Terminal Aerodrome Forecast
Issued by NWS Bismarck, ND

Home | Current Version | Previous Version | Text Only | Print | Product List | Glossary Off
Versions: 1 2 3 4 5 6 7 8 9 10 11 12 13 14 15 16 17 18 19

000
FTUS43 KBIS 231734
TAFBIS
TAF
KBIS 231734Z 2318/2418 04014G22KT P6SM BKN070
     FM240100 01016G24KT P6SM VCSH BKN050 OVC060
     FM240300 01015G23KT 6SM -RA BKN050 OVC060
     FM241100 36011KT P6SM SCT060 BKN080=

USA.gov is the U.S. government's official web portal to all federal, state and local government web resources and services.